RJBM(METAR)
05/22 00:00
METAR RJBM 211500Z 15002KT 9999 SCT060 BKN090 17/14 Q1007 RMK 4SC060
7AC090 A2975=
戻る
トップページへ戻る
IMOC Co,.Ltd.